Time;durP1;ratioP1;P1;durP2;ratioP2;P2;SDS_P1;SDS_P2;PMS_P1;PMS_P2;Temp;Humidity;BMP_temperature;BMP_pressure;BME280_temperature;BME280_humidity;BME280_pressure;Samples;Min_cycle;Max_cycle;Signal;HPM_P1;HPM_P2
2024/01/15 00:00:23;;;;;;;33.07;11.03;;;-2.30;99.90;;;;;;5011373;28;20695;-66
2024/01/15 00:02:50;;;;;;;37.47;13.23;;;-2.30;99.90;;;;;;4947661;28;20601;-65
2024/01/15 00:05:17;;;;;;;34.77;11.70;;;-2.30;99.90;;;;;;4989983;28;20469;-65
2024/01/15 00:07:44;;;;;;;35.37;12.93;;;-2.30;99.90;;;;;;4991653;28;20528;-65
2024/01/15 00:10:11;;;;;;;37.67;14.93;;;-2.30;99.90;;;;;;5007896;28;20944;-65
2024/01/15 00:12:38;;;;;;;30.60;10.67;;;-2.30;99.90;;;;;;5009407;28;20484;-65
2024/01/15 00:15:06;;;;;;;25.30;12.13;;;-2.30;99.90;;;;;;4996789;28;20742;-65
2024/01/15 00:17:34;;;;;;;44.77;16.43;;;-2.20;99.90;;;;;;4978149;28;20494;-65
2024/01/15 00:20:01;;;;;;;34.57;15.17;;;-2.20;99.90;;;;;;5011958;28;20500;-65
2024/01/15 00:22:28;;;;;;;30.77;13.90;;;-2.40;99.90;;;;;;5013404;28;20496;-65
2024/01/15 00:24:55;;;;;;;43.70;12.10;;;-2.30;99.90;;;;;;5012725;28;20481;-65
2024/01/15 00:27:22;;;;;;;37.93;12.27;;;-2.30;99.90;;;;;;5012219;28;20557;-65
2024/01/15 00:29:50;;;;;;;60.07;10.27;;;-2.30;99.90;;;;;;5011475;28;20677;-65
2024/01/15 00:32:17;;;;;;;24.13;9.63;;;-2.30;99.90;;;;;;4984677;28;20866;-66
2024/01/15 00:34:45;;;;;;;42.63;17.73;;;-2.30;99.90;;;;;;5004023;28;21055;-62
2024/01/15 00:37:12;;;;;;;70.50;22.57;;;-2.40;99.90;;;;;;4964954;28;20845;-62
2024/01/15 00:39:39;;;;;;;23.57;10.80;;;-2.30;99.90;;;;;;5011313;28;20779;-62
2024/01/15 00:42:06;;;;;;;45.97;17.57;;;-2.30;99.90;;;;;;5018585;28;20857;-63
2024/01/15 00:44:33;;;;;;;42.67;12.47;;;-2.20;99.90;;;;;;5029490;28;20549;-62
2024/01/15 00:47:01;;;;;;;38.53;12.70;;;-2.30;99.90;;;;;;5018159;28;20477;-62
2024/01/15 00:49:28;;;;;;;53.70;19.67;;;-2.30;99.90;;;;;;4984106;28;20973;-62
2024/01/15 00:51:57;;;;;;;58.07;21.70;;;-2.30;99.90;;;;;;5015562;28;20480;-62
2024/01/15 00:54:24;;;;;;;26.17;12.00;;;-2.30;99.90;;;;;;5009759;28;20488;-62
2024/01/15 00:56:51;;;;;;;42.97;14.60;;;-2.20;99.90;;;;;;5021231;28;21231;-62
2024/01/15 00:59:17;;;;;;;29.50;12.43;;;-2.20;99.90;;;;;;5020920;28;20487;-62
2024/01/15 01:01:45;;;;;;;58.97;24.57;;;-2.20;99.90;;;;;;5016829;28;20498;-62
2024/01/15 01:04:13;;;;;;;69.20;15.93;;;-2.20;99.90;;;;;;5016623;28;20480;-64
2024/01/15 01:06:40;;;;;;;46.50;18.97;;;-2.20;99.90;;;;;;4989337;28;21002;-65
2024/01/15 01:09:08;;;;;;;33.47;13.13;;;-2.20;99.90;;;;;;5004122;28;20491;-64
2024/01/15 01:11:35;;;;;;;61.80;24.90;;;-2.20;99.90;;;;;;4990108;28;20488;-64
2024/01/15 01:14:02;;;;;;;43.77;13.80;;;-2.10;99.90;;;;;;4989976;28;20605;-65
2024/01/15 01:16:30;;;;;;;30.00;10.27;;;-2.20;99.90;;;;;;4999205;28;20487;-65
2024/01/15 01:18:57;;;;;;;40.37;12.57;;;-2.10;99.90;;;;;;5028321;28;20481;-65
2024/01/15 01:21:24;;;;;;;29.73;6.43;;;-2.10;99.90;;;;;;5028840;28;20494;-65
2024/01/15 01:23:51;;;;;;;49.93;16.00;;;-2.10;99.90;;;;;;5002733;28;20838;-64
2024/01/15 01:26:19;;;;;;;46.27;16.73;;;-2.10;99.90;;;;;;5006419;28;21008;-64
2024/01/15 01:28:46;;;;;;;27.00;10.80;;;-2.10;99.90;;;;;;5034231;28;20915;-65
2024/01/15 01:31:13;;;;;;;22.10;8.00;;;-2.00;99.90;;;;;;5021344;28;20526;-64
2024/01/15 01:33:40;;;;;;;52.93;16.63;;;-1.80;99.90;;;;;;5001530;28;20500;-65
2024/01/15 01:36:09;;;;;;;36.17;10.60;;;-1.80;99.90;;;;;;5015618;28;20484;-64
2024/01/15 01:38:36;;;;;;;62.70;15.23;;;-1.80;99.90;;;;;;4993411;28;20465;-65
2024/01/15 01:41:03;;;;;;;24.57;6.80;;;-1.80;99.90;;;;;;5021747;28;20492;-64
2024/01/15 01:43:32;;;;;;;32.83;11.33;;;-1.80;99.90;;;;;;5037491;28;20480;-65
2024/01/15 01:46:00;;;;;;;33.83;10.00;;;-1.80;99.90;;;;;;5023959;28;20861;-65
2024/01/15 01:48:27;;;;;;;41.53;15.40;;;-1.80;99.90;;;;;;5003346;28;20476;-64
2024/01/15 01:50:55;;;;;;;43.43;16.67;;;-1.80;99.90;;;;;;4995545;28;20494;-65
2024/01/15 01:53:23;;;;;;;23.33;7.80;;;-1.80;99.90;;;;;;5030873;28;20476;-65
2024/01/15 01:55:51;;;;;;;35.40;12.53;;;-1.70;99.90;;;;;;4993502;28;20924;-65
2024/01/15 01:58:19;;;;;;;15.83;7.23;;;-1.70;99.90;;;;;;5031735;28;20491;-65
2024/01/15 02:00:49;;;;;;;39.77;13.33;;;-1.80;99.90;;;;;;5027220;28;20798;-65
2024/01/15 02:03:16;;;;;;;20.37;7.47;;;-1.60;99.90;;;;;;5024508;28;20770;-65
2024/01/15 02:05:45;;;;;;;37.57;13.67;;;-1.70;99.90;;;;;;5012760;28;20499;-64
2024/01/15 02:08:12;;;;;;;64.03;15.73;;;-1.60;99.90;;;;;;5016976;28;20550;-65
2024/01/15 02:10:39;;;;;;;17.27;7.33;;;-1.60;99.90;;;;;;5036132;28;20585;-64
2024/01/15 02:13:06;;;;;;;56.47;9.00;;;-1.60;99.90;;;;;;5024937;28;20488;-65
2024/01/15 02:15:33;;;;;;;39.47;17.03;;;-1.60;99.90;;;;;;4994079;28;20481;-62
2024/01/15 02:18:04;;;;;;;15.33;8.47;;;-1.60;99.90;;;;;;4983256;28;20484;-62
2024/01/15 02:20:32;;;;;;;56.60;19.40;;;-1.60;99.90;;;;;;5025565;28;20904;-62
2024/01/15 02:23:09;;;;;;;62.67;20.60;;;-1.70;99.90;;;;;;5019752;28;20471;-62
2024/01/15 02:25:37;;;;;;;40.87;17.73;;;-1.60;99.90;;;;;;5023985;28;20572;-62
2024/01/15 02:28:05;;;;;;;36.23;13.97;;;-1.60;99.90;;;;;;5018250;28;20472;-62
2024/01/15 02:30:32;;;;;;;23.27;10.30;;;-1.60;99.90;;;;;;5026663;28;20494;-62
2024/01/15 02:32:59;;;;;;;19.90;10.17;;;-1.60;99.90;;;;;;5011667;28;20485;-61
2024/01/15 02:35:26;;;;;;;13.23;5.03;;;-1.50;99.90;;;;;;5027105;28;20551;-62
2024/01/15 02:37:53;;;;;;;17.37;8.20;;;-1.40;99.90;;;;;;5025346;28;20530;-62
2024/01/15 02:40:22;;;;;;;41.63;14.47;;;-1.50;99.90;;;;;;5023684;28;20493;-61
2024/01/15 02:42:48;;;;;;;27.77;10.40;;;-1.40;99.90;;;;;;5028014;28;21099;-63
2024/01/15 02:45:15;;;;;;;21.17;10.93;;;-1.30;99.90;;;;;;5028463;28;20518;-63
2024/01/15 02:47:42;;;;;;;34.63;9.63;;;-1.40;99.90;;;;;;5029041;28;20862;-63
2024/01/15 02:50:09;;;;;;;29.17;11.87;;;-1.40;99.90;;;;;;5015207;28;20534;-63
2024/01/15 02:52:36;;;;;;;21.00;10.50;;;-1.30;99.90;;;;;;4987991;28;21070;-63
2024/01/15 02:55:03;;;;;;;18.23;7.00;;;-1.40;99.90;;;;;;4996551;28;20470;-64
2024/01/15 02:57:32;;;;;;;21.13;6.33;;;-1.40;99.90;;;;;;5002059;28;20539;-65
2024/01/15 02:59:58;;;;;;;35.70;14.63;;;-1.40;99.90;;;;;;4981680;28;20477;-64
2024/01/15 03:02:25;;;;;;;17.77;9.47;;;-1.40;99.90;;;;;;5001036;28;20496;-64
2024/01/15 03:04:52;;;;;;;27.70;12.43;;;-1.50;99.90;;;;;;5003997;28;20822;-65
2024/01/15 03:07:19;;;;;;;54.73;20.70;;;-1.40;99.90;;;;;;4994538;28;20489;-64
2024/01/15 03:09:46;;;;;;;33.23;12.97;;;-1.50;99.90;;;;;;4990276;28;20489;-64
2024/01/15 03:12:13;;;;;;;20.87;9.03;;;-1.50;99.90;;;;;;4982065;28;20486;-65
2024/01/15 03:14:41;;;;;;;25.67;12.10;;;-1.60;99.90;;;;;;4990544;28;20485;-65
2024/01/15 03:17:10;;;;;;;23.10;8.40;;;-1.50;99.90;;;;;;5017888;28;20554;-65
2024/01/15 03:19:37;;;;;;;44.70;19.20;;;-1.50;99.90;;;;;;4988653;28;20516;-65
2024/01/15 03:22:04;;;;;;;52.77;16.17;;;-1.50;99.90;;;;;;5026851;28;20561;-64
2024/01/15 03:24:35;;;;;;;33.10;12.50;;;-1.40;99.90;;;;;;5027030;28;20685;-65
2024/01/15 03:27:02;;;;;;;17.50;9.77;;;-1.30;99.90;;;;;;5018683;28;20484;-64
2024/01/15 03:29:29;;;;;;;27.77;11.10;;;-1.30;99.90;;;;;;5012114;28;20556;-65
2024/01/15 03:31:57;;;;;;;26.53;8.57;;;-1.20;99.90;;;;;;4993552;28;20539;-64
2024/01/15 03:34:24;;;;;;;15.60;7.43;;;-1.20;99.90;;;;;;5016454;28;20493;-65
2024/01/15 03:36:51;;;;;;;26.73;10.43;;;-1.10;99.90;;;;;;5024661;28;20481;-65
2024/01/15 03:39:18;;;;;;;34.97;13.97;;;-1.00;99.90;;;;;;5021757;28;20477;-65
2024/01/15 03:41:45;;;;;;;26.93;11.97;;;-1.10;99.90;;;;;;5015877;28;20562;-65
2024/01/15 03:44:12;;;;;;;12.23;8.23;;;-1.10;99.90;;;;;;5004362;28;20944;-65
2024/01/15 03:46:39;;;;;;;24.27;11.20;;;-1.10;99.90;;;;;;4974157;28;20487;-65
2024/01/15 03:49:07;;;;;;;34.70;15.33;;;-1.00;99.90;;;;;;5014276;28;20572;-65
2024/01/15 03:51:34;;;;;;;36.00;14.17;;;-0.90;99.90;;;;;;5022144;28;20488;-66
2024/01/15 03:54:01;;;;;;;37.60;12.30;;;-0.90;99.90;;;;;;4987344;28;20482;-64
2024/01/15 03:56:28;;;;;;;46.20;17.70;;;-1.00;99.90;;;;;;4991437;28;20510;-64
2024/01/15 03:58:55;;;;;;;49.10;14.57;;;-1.00;99.90;;;;;;4998278;28;20853;-65
2024/01/15 04:01:21;;;;;;;36.83;16.93;;;-0.90;99.90;;;;;;5004651;28;20485;-64
2024/01/15 04:03:48;;;;;;;30.33;10.73;;;-1.00;99.90;;;;;;4994258;28;20484;-65
2024/01/15 04:06:17;;;;;;;37.93;15.17;;;-0.90;99.90;;;;;;5010533;28;20550;-65
2024/01/15 04:08:43;;;;;;;43.37;15.40;;;-0.80;99.90;;;;;;5006574;28;20527;-64
2024/01/15 04:11:10;;;;;;;26.53;10.10;;;-0.70;99.90;;;;;;4995678;28;20907;-64
2024/01/15 04:13:37;;;;;;;40.70;14.20;;;-0.70;99.90;;;;;;5007339;28;20492;-64
2024/01/15 04:16:05;;;;;;;29.53;11.03;;;-0.60;99.90;;;;;;5017573;28;20530;-64
2024/01/15 04:18:31;;;;;;;39.33;12.70;;;-0.60;99.90;;;;;;5006072;28;20477;-64
2024/01/15 04:20:58;;;;;;;30.00;9.60;;;-0.70;99.90;;;;;;5032306;28;20569;-64
2024/01/15 04:23:27;;;;;;;29.83;14.50;;;-0.70;99.90;;;;;;5032124;28;20484;-64
2024/01/15 04:25:53;;;;;;;47.83;15.83;;;-0.80;99.90;;;;;;5019686;28;20496;-65
2024/01/15 04:28:20;;;;;;;14.90;6.77;;;-0.70;99.90;;;;;;5026130;28;20481;-64
2024/01/15 04:30:47;;;;;;;36.60;10.53;;;-0.70;99.90;;;;;;5018089;28;20479;-64
2024/01/15 04:33:14;;;;;;;31.57;12.97;;;-0.70;99.90;;;;;;4995016;28;20480;-65
2024/01/15 04:35:41;;;;;;;20.23;9.60;;;-0.70;99.90;;;;;;4989975;28;20930;-62
2024/01/15 04:38:08;;;;;;;26.03;8.80;;;-0.70;99.90;;;;;;4999287;28;20858;-62
2024/01/15 04:40:36;;;;;;;30.47;13.77;;;-0.70;99.90;;;;;;5005564;28;20472;-62
2024/01/15 04:43:03;;;;;;;23.47;11.73;;;-0.60;99.90;;;;;;5004429;28;21003;-63
2024/01/15 04:45:30;;;;;;;27.17;11.43;;;-0.60;99.90;;;;;;5002372;28;20862;-62
2024/01/15 04:47:57;;;;;;;13.07;8.27;;;-0.60;99.90;;;;;;4998464;28;20477;-62
2024/01/15 04:50:24;;;;;;;12.37;7.53;;;-0.60;99.90;;;;;;4976630;28;20488;-62
2024/01/15 04:52:51;;;;;;;27.13;8.00;;;-0.60;99.90;;;;;;4995231;28;20535;-62
2024/01/15 04:55:18;;;;;;;28.10;12.53;;;-0.60;99.90;;;;;;5007256;28;21105;-62
2024/01/15 04:57:47;;;;;;;23.50;9.57;;;-0.60;99.90;;;;;;5022386;28;20542;-62
2024/01/15 05:00:14;;;;;;;21.83;11.83;;;-0.60;99.90;;;;;;5008795;28;20496;-62
2024/01/15 05:02:41;;;;;;;43.27;15.93;;;-0.60;99.90;;;;;;5006343;28;20568;-62
2024/01/15 05:05:08;;;;;;;54.60;16.73;;;-0.70;99.90;;;;;;4973002;28;20479;-62
2024/01/15 05:07:35;;;;;;;26.70;12.07;;;-0.70;99.90;;;;;;4983831;28;20485;-62
2024/01/15 05:10:03;;;;;;;29.17;13.53;;;-0.60;99.90;;;;;;4998590;28;20496;-62
2024/01/15 05:12:30;;;;;;;33.00;15.57;;;-0.60;99.90;;;;;;4958021;28;20531;-61
2024/01/15 05:14:58;;;;;;;50.27;24.40;;;;;;;;;;5013640;28;20982;-61
2024/01/15 05:17:25;;;;;;;53.47;18.23;;;-0.70;99.90;;;;;;5003563;28;20530;-62
2024/01/15 05:19:52;;;;;;;41.67;16.17;;;-0.70;99.90;;;;;;5029189;28;20897;-62
2024/01/15 05:22:20;;;;;;;37.63;15.97;;;-0.60;99.90;;;;;;5019883;28;21067;-62
2024/01/15 05:24:47;;;;;;;39.90;18.23;;;-0.60;99.90;;;;;;5003363;28;21300;-62
2024/01/15 05:27:14;;;;;;;51.93;20.40;;;-0.50;99.90;;;;;;5005088;28;20913;-62
2024/01/15 05:29:41;;;;;;;22.57;9.63;;;-0.50;99.90;;;;;;5027067;28;20538;-62
2024/01/15 05:32:09;;;;;;;31.17;11.40;;;-0.50;99.90;;;;;;4983109;28;20531;-62
2024/01/15 05:34:36;;;;;;;49.83;11.87;;;-0.40;99.90;;;;;;5021113;28;20488;-61
2024/01/15 05:37:02;;;;;;;16.57;7.90;;;-0.50;99.90;;;;;;5003296;28;20473;-63
2024/01/15 05:39:29;;;;;;;77.77;21.17;;;-0.50;99.90;;;;;;5003414;28;20511;-62
2024/01/15 05:41:56;;;;;;;33.30;16.20;;;-0.50;99.90;;;;;;5009125;28;20472;-62
2024/01/15 05:44:23;;;;;;;50.83;14.20;;;-0.40;99.90;;;;;;4974258;28;20779;-62
2024/01/15 05:46:50;;;;;;;43.50;16.70;;;-0.50;99.90;;;;;;4987838;28;20519;-63
2024/01/15 05:49:18;;;;;;;41.50;14.70;;;-0.50;99.90;;;;;;5014729;28;20519;-62
2024/01/15 05:51:45;;;;;;;30.57;11.33;;;-0.50;99.90;;;;;;5013040;28;20476;-62
2024/01/15 05:54:12;;;;;;;44.40;16.07;;;-0.60;99.90;;;;;;5009230;28;20476;-62
2024/01/15 05:56:39;;;;;;;17.13;9.57;;;-0.50;99.90;;;;;;5012126;28;20481;-62
2024/01/15 05:59:05;;;;;;;42.50;11.73;;;-0.40;99.90;;;;;;4978512;28;20886;-61
2024/01/15 06:01:32;;;;;;;27.77;10.03;;;-0.40;99.90;;;;;;5005083;28;20484;-62
2024/01/15 06:03:59;;;;;;;39.93;19.03;;;-0.30;99.90;;;;;;5012256;28;20473;-62
2024/01/15 06:06:27;;;;;;;27.37;11.57;;;-0.30;99.90;;;;;;4982222;28;20868;-62
2024/01/15 06:08:54;;;;;;;42.63;18.30;;;-0.40;99.90;;;;;;4980577;28;20484;-62
2024/01/15 06:11:21;;;;;;;22.40;8.30;;;-0.40;99.90;;;;;;5018744;28;20800;-63
2024/01/15 06:13:48;;;;;;;55.10;14.97;;;;;;;;;;5031705;28;20480;-62
2024/01/15 06:16:16;;;;;;;9.90;5.57;;;-0.40;99.90;;;;;;4981942;28;20481;-63
2024/01/15 06:18:43;;;;;;;50.57;17.77;;;-0.40;99.90;;;;;;4990706;28;20495;-62
2024/01/15 06:21:12;;;;;;;24.53;10.93;;;-0.40;99.90;;;;;;5018303;28;21072;-62
2024/01/15 06:23:41;;;;;;;21.77;7.40;;;-0.40;99.90;;;;;;5022994;28;20479;-61
2024/01/15 06:26:08;;;;;;;14.43;7.63;;;-0.40;99.90;;;;;;5010928;28;20497;-65
2024/01/15 06:28:35;;;;;;;40.23;13.50;;;-0.50;99.90;;;;;;5015408;28;20480;-65
2024/01/15 06:31:02;;;;;;;19.73;8.20;;;-0.40;99.90;;;;;;4981163;28;20489;-64
2024/01/15 06:33:28;;;;;;;20.10;7.03;;;-0.40;99.90;;;;;;4993405;28;20481;-65
2024/01/15 06:35:56;;;;;;;19.17;9.03;;;-0.30;99.90;;;;;;5016888;28;20541;-65
2024/01/15 06:38:23;;;;;;;35.60;15.07;;;-0.30;99.90;;;;;;5025038;28;20492;-65
2024/01/15 06:40:51;;;;;;;20.43;9.73;;;-0.30;99.90;;;;;;4988238;28;20481;-65
2024/01/15 06:43:18;;;;;;;35.83;14.27;;;-0.30;99.90;;;;;;5005007;28;20511;-64
2024/01/15 06:45:45;;;;;;;28.37;11.43;;;-0.30;99.90;;;;;;5007037;28;20502;-64
2024/01/15 06:48:14;;;;;;;13.33;8.77;;;-0.40;99.90;;;;;;5014548;28;20476;-65
2024/01/15 06:50:41;;;;;;;33.90;15.30;;;-0.40;99.90;;;;;;5013560;28;20477;-64
2024/01/15 06:53:08;;;;;;;28.33;10.17;;;-0.30;99.90;;;;;;5013023;28;20530;-65
2024/01/15 06:55:35;;;;;;;38.83;17.87;;;-0.50;99.90;;;;;;5018161;28;20476;-64
2024/01/15 06:58:03;;;;;;;32.70;14.33;;;-0.40;99.90;;;;;;5016837;28;20480;-64
2024/01/15 07:00:30;;;;;;;9.83;5.10;;;-0.40;99.90;;;;;;5023822;28;20484;-64
2024/01/15 07:03:00;;;;;;;23.37;7.20;;;-0.40;99.90;;;;;;5017799;28;20491;-64
2024/01/15 07:05:27;;;;;;;19.23;9.37;;;-0.40;99.90;;;;;;5008624;28;20489;-64
2024/01/15 07:07:53;;;;;;;21.73;12.13;;;-0.40;99.90;;;;;;4996702;28;20561;-64
2024/01/15 07:10:23;;;;;;;17.43;9.60;;;-0.40;99.90;;;;;;4994512;28;20472;-65
2024/01/15 07:12:50;;;;;;;36.13;15.60;;;-0.40;99.90;;;;;;4995674;28;20473;-65
2024/01/15 07:15:19;;;;;;;22.00;9.97;;;-0.40;99.90;;;;;;5022684;28;20485;-64
2024/01/15 07:17:45;;;;;;;46.47;21.13;;;-0.40;99.90;;;;;;5028011;28;20488;-64
2024/01/15 07:20:12;;;;;;;46.87;19.40;;;-0.40;99.90;;;;;;4997430;28;20479;-64
2024/01/15 07:22:40;;;;;;;46.30;15.23;;;-0.50;99.90;;;;;;5016225;28;20493;-64
2024/01/15 07:25:07;;;;;;;47.77;23.53;;;-0.40;99.90;;;;;;5018724;28;20562;-64
2024/01/15 07:27:34;;;;;;;30.93;11.80;;;-0.40;99.90;;;;;;5021064;28;20824;-64
2024/01/15 07:30:03;;;;;;;32.60;13.60;;;-0.40;99.90;;;;;;5004894;28;20713;-64
2024/01/15 07:32:32;;;;;;;28.03;14.40;;;-0.40;99.90;;;;;;4976357;28;20565;-64
2024/01/15 07:34:59;;;;;;;55.97;29.03;;;-0.30;99.90;;;;;;5008901;28;20957;-65
2024/01/15 07:37:26;;;;;;;31.43;12.17;;;-0.30;99.90;;;;;;5009396;28;20481;-61
2024/01/15 07:39:53;;;;;;;39.87;17.03;;;-0.20;99.90;;;;;;5012441;28;20554;-62
2024/01/15 07:42:20;;;;;;;53.10;16.80;;;-0.10;99.90;;;;;;5006747;28;20476;-62
2024/01/15 07:44:47;;;;;;;44.13;15.57;;;-0.10;99.90;;;;;;4974277;28;20496;-62
2024/01/15 07:47:14;;;;;;;31.70;15.40;;;-0.20;99.90;;;;;;4983689;28;20489;-62
2024/01/15 07:49:42;;;;;;;36.07;14.90;;;-0.20;99.90;;;;;;5000733;28;20523;-61
2024/01/15 07:52:09;;;;;;;59.23;24.67;;;-0.10;99.90;;;;;;4985151;28;20495;-61
2024/01/15 07:54:36;;;;;;;25.13;11.13;;;-0.20;99.90;;;;;;4999596;28;20569;-61
2024/01/15 07:57:04;;;;;;;34.07;10.17;;;-0.10;99.90;;;;;;5030815;28;20479;-62
2024/01/15 07:59:31;;;;;;;32.27;12.50;;;-0.10;99.90;;;;;;4984002;28;20486;-62
2024/01/15 08:02:00;;;;;;;34.10;10.63;;;-0.10;99.90;;;;;;4980868;28;20543;-62
2024/01/15 08:04:27;;;;;;;34.60;10.47;;;;;;;;;;4993403;28;21139;-63
2024/01/15 08:06:56;;;;;;;19.23;10.70;;;0.00;99.90;;;;;;4993134;28;20484;-63
2024/01/15 08:09:23;;;;;;;22.53;9.73;;;0.00;99.90;;;;;;4992260;28;20473;-64
2024/01/15 08:11:50;;;;;;;50.80;17.30;;;0.00;99.90;;;;;;4978211;28;20527;-65
2024/01/15 08:14:17;;;;;;;32.17;13.77;;;0.00;99.90;;;;;;5022002;28;20922;-64
2024/01/15 08:16:44;;;;;;;31.53;16.77;;;0.00;99.90;;;;;;4972770;28;20485;-63
2024/01/15 08:19:11;;;;;;;57.87;14.93;;;0.00;99.90;;;;;;4972688;28;20552;-65
2024/01/15 08:21:38;;;;;;;25.90;10.77;;;0.00;99.90;;;;;;4971057;28;20983;-64
2024/01/15 08:24:06;;;;;;;29.87;11.57;;;-0.10;99.90;;;;;;4989997;28;20488;-64
2024/01/15 08:26:33;;;;;;;21.20;9.03;;;0.10;99.90;;;;;;4997496;28;20894;-65
2024/01/15 08:29:00;;;;;;;41.53;16.67;;;0.10;99.90;;;;;;4993875;28;20485;-64
2024/01/15 08:31:28;;;;;;;29.07;14.00;;;0.20;99.90;;;;;;5019763;28;20491;-64
2024/01/15 08:33:55;;;;;;;31.73;15.77;;;0.30;99.90;;;;;;5013800;28;20883;-63
2024/01/15 08:36:22;;;;;;;46.40;14.00;;;0.20;99.90;;;;;;5007201;28;20499;-64
2024/01/15 08:38:49;;;;;;;46.97;14.67;;;0.20;99.90;;;;;;5003060;28;20557;-64
2024/01/15 08:41:17;;;;;;;30.60;13.30;;;0.30;99.90;;;;;;5013517;28;20542;-64
2024/01/15 08:43:44;;;;;;;27.80;14.27;;;0.40;99.90;;;;;;5001773;28;20975;-64
2024/01/15 08:46:11;;;;;;;51.90;17.23;;;0.40;99.90;;;;;;5009270;28;20771;-64
2024/01/15 08:48:40;;;;;;;42.70;19.70;;;0.50;99.90;;;;;;5022974;28;20476;-63
2024/01/15 08:51:07;;;;;;;28.97;11.97;;;0.50;99.90;;;;;;5018276;28;21387;-62
2024/01/15 08:53:34;;;;;;;21.67;11.07;;;0.60;99.90;;;;;;5010139;28;20493;-63
2024/01/15 08:56:01;;;;;;;27.27;12.63;;;0.60;99.90;;;;;;5015043;28;20477;-62
2024/01/15 08:58:30;;;;;;;34.30;12.77;;;0.60;99.90;;;;;;4991611;28;20484;-63
2024/01/15 09:00:56;;;;;;;41.03;22.63;;;0.60;99.90;;;;;;5011405;28;20874;-63
2024/01/15 09:03:23;;;;;;;26.13;12.73;;;0.60;99.90;;;;;;5019985;28;20551;-64
2024/01/15 09:05:50;;;;;;;34.47;9.63;;;0.60;99.90;;;;;;5017954;28;20494;-63
2024/01/15 09:08:18;;;;;;;51.30;18.77;;;0.60;99.90;;;;;;4974952;28;20957;-63
2024/01/15 09:10:45;;;;;;;52.33;16.27;;;0.70;99.90;;;;;;5017843;28;20488;-63
2024/01/15 09:13:12;;;;;;;52.50;16.07;;;0.80;99.90;;;;;;5008095;28;20682;-63
2024/01/15 09:15:40;;;;;;;38.83;15.97;;;0.80;99.90;;;;;;5021483;28;20480;-63
2024/01/15 09:18:07;;;;;;;32.30;14.03;;;0.80;99.90;;;;;;5003900;28;21088;-63
2024/01/15 09:20:34;;;;;;;26.70;9.50;;;0.90;99.90;;;;;;5008034;28;20484;-63
2024/01/15 09:23:01;;;;;;;34.20;12.30;;;1.00;99.90;;;;;;5011833;28;20479;-63
2024/01/15 09:25:28;;;;;;;21.80;10.10;;;1.00;99.90;;;;;;5022878;28;20546;-64
2024/01/15 09:27:55;;;;;;;35.43;12.27;;;1.10;99.90;;;;;;5021028;28;20534;-63
2024/01/15 09:30:22;;;;;;;17.63;9.03;;;1.10;99.90;;;;;;5024924;28;20963;-64
2024/01/15 09:32:50;;;;;;;20.23;10.43;;;1.10;99.90;;;;;;5006674;28;20921;-63
2024/01/15 09:35:17;;;;;;;47.17;23.83;;;1.00;99.90;;;;;;5018752;28;20472;-63
2024/01/15 09:37:45;;;;;;;27.97;12.50;;;1.00;99.90;;;;;;5006397;28;20491;-63
2024/01/15 09:40:15;;;;;;;29.17;13.13;;;1.00;99.90;;;;;;5000382;28;20501;-63
2024/01/15 09:42:42;;;;;;;21.60;9.87;;;1.10;99.90;;;;;;4989678;28;20483;-63
2024/01/15 09:45:10;;;;;;;38.60;14.60;;;1.20;99.90;;;;;;5009327;28;20476;-63
2024/01/15 09:47:38;;;;;;;37.40;14.90;;;1.30;99.90;;;;;;5015282;28;20480;-64
2024/01/15 09:50:07;;;;;;;38.07;15.93;;;1.30;99.90;;;;;;5032786;28;21011;-64
2024/01/15 09:52:35;;;;;;;16.87;9.20;;;1.40;99.90;;;;;;5022559;28;20484;-64
2024/01/15 09:55:05;;;;;;;29.30;12.57;;;1.40;99.90;;;;;;5023201;28;21031;-64
2024/01/15 09:57:32;;;;;;;30.37;12.13;;;1.40;99.90;;;;;;5020489;28;20563;-64
2024/01/15 10:00:03;;;;;;;21.90;10.83;;;1.50;99.90;;;;;;5008157;28;20492;-65
2024/01/15 10:02:30;;;;;;;36.20;13.37;;;1.50;99.90;;;;;;5030028;28;20482;-65
2024/01/15 10:04:57;;;;;;;30.70;15.03;;;1.50;99.90;;;;;;5007314;28;20476;-65
2024/01/15 10:07:28;;;;;;;29.20;14.23;;;1.50;99.90;;;;;;5001008;28;20492;-65
2024/01/15 10:09:55;;;;;;;21.13;11.73;;;1.60;99.90;;;;;;5002083;28;20971;-64
2024/01/15 10:12:23;;;;;;;19.80;7.83;;;1.60;99.90;;;;;;5001301;28;20519;-65
2024/01/15 10:14:50;;;;;;;35.53;8.70;;;;;;;;;;5001645;28;20480;-64
2024/01/15 10:17:17;;;;;;;22.10;11.40;;;1.70;99.90;;;;;;5018719;28;20534;-64
2024/01/15 10:19:46;;;;;;;35.00;11.53;;;1.70;99.90;;;;;;5025633;28;20491;-63
2024/01/15 10:22:15;;;;;;;33.73;9.90;;;1.70;99.90;;;;;;5012613;28;20493;-64
2024/01/15 10:24:44;;;;;;;16.27;7.47;;;1.70;99.90;;;;;;5026217;28;20967;-64
2024/01/15 10:27:11;;;;;;;25.33;11.43;;;1.50;99.90;;;;;;5027473;28;20500;-65
2024/01/15 10:29:38;;;;;;;25.90;8.67;;;1.70;99.90;;;;;;4999614;28;20482;-64
2024/01/15 10:32:08;;;;;;;24.50;12.73;;;1.70;99.90;;;;;;5010704;28;20471;-63
2024/01/15 10:34:39;;;;;;;12.87;7.67;;;1.70;99.90;;;;;;5026393;28;20525;-64
2024/01/15 10:37:08;;;;;;;29.20;15.20;;;1.80;99.90;;;;;;4997304;28;20888;-64
2024/01/15 10:39:36;;;;;;;21.93;10.67;;;1.80;99.90;;;;;;4982450;28;20575;-64
2024/01/15 10:42:04;;;;;;;14.97;8.37;;;1.90;99.90;;;;;;5019061;28;20469;-63
2024/01/15 10:44:32;;;;;;;24.53;10.70;;;1.90;99.90;;;;;;5033741;28;20510;-64
2024/01/15 10:46:58;;;;;;;28.57;12.63;;;1.90;99.90;;;;;;5017514;28;20476;-64
2024/01/15 10:49:27;;;;;;;30.60;10.90;;;1.90;99.90;;;;;;4991245;28;20485;-64
2024/01/15 10:51:55;;;;;;;27.43;10.60;;;1.90;99.90;;;;;;5008240;28;20486;-65
2024/01/15 10:54:24;;;;;;;25.20;13.53;;;1.90;99.90;;;;;;5008460;28;21087;-64
2024/01/15 10:56:52;;;;;;;25.13;8.33;;;2.00;99.90;;;;;;4990626;28;20497;-63
2024/01/15 10:59:22;;;;;;;27.93;12.70;;;2.00;99.90;;;;;;4995989;28;20510;-63
2024/01/15 11:01:50;;;;;;;11.40;6.07;;;2.00;99.90;;;;;;4998993;28;20715;-64
2024/01/15 11:04:17;;;;;;;20.30;7.97;;;2.00;99.90;;;;;;4976970;28;20575;-64
2024/01/15 11:06:46;;;;;;;14.17;6.40;;;2.00;99.90;;;;;;5003927;28;20559;-64
2024/01/15 11:09:15;;;;;;;15.57;7.60;;;2.00;99.90;;;;;;4977682;28;20936;-64
2024/01/15 11:11:43;;;;;;;11.37;8.17;;;2.10;99.90;;;;;;4970758;28;20518;-65
2024/01/15 11:14:10;;;;;;;13.07;7.57;;;2.10;99.90;;;;;;5006687;28;20542;-64
2024/01/15 11:16:59;;;;;;;29.63;10.23;;;2.10;99.90;;;;;;5011082;28;20829;-65
2024/01/15 11:19:27;;;;;;;12.20;7.40;;;2.10;99.90;;;;;;5013591;28;20549;-65
2024/01/15 11:21:54;;;;;;;7.90;5.93;;;2.10;99.90;;;;;;5014279;28;20480;-64
2024/01/15 11:24:37;;;;;;;25.87;10.13;;;2.20;99.90;;;;;;5004082;28;20534;-63
2024/01/15 11:27:05;;;;;;;14.80;7.13;;;2.20;99.90;;;;;;4960848;28;20496;-64
2024/01/15 11:29:34;;;;;;;10.43;7.03;;;2.20;99.90;;;;;;5008841;28;21120;-64
2024/01/15 11:32:07;;;;;;;16.70;6.30;;;2.20;99.90;;;;;;5002759;28;20872;-64
2024/01/15 11:34:57;;;;;;;15.83;7.70;;;2.30;99.90;;;;;;4998334;28;20480;-63
2024/01/15 11:37:25;;;;;;;30.23;10.83;;;2.20;99.90;;;;;;5013739;28;20476;-63
2024/01/15 11:39:54;;;;;;;15.93;5.70;;;2.30;99.90;;;;;;5007446;28;20955;-64
2024/01/15 11:42:23;;;;;;;14.67;7.33;;;2.30;99.90;;;;;;4992172;28;20579;-63
2024/01/15 11:44:50;;;;;;;24.80;11.07;;;2.40;99.90;;;;;;4989859;28;21141;-64
2024/01/15 11:47:51;;;;;;;11.60;6.57;;;2.40;99.90;;;;;;5002978;28;20809;-64
2024/01/15 11:50:20;;;;;;;10.90;6.83;;;2.40;99.90;;;;;;4979445;28;20526;-64
2024/01/15 11:52:57;;;;;;;17.33;7.60;;;2.50;99.90;;;;;;5002676;28;20510;-64
2024/01/15 11:55:29;;;;;;;10.13;6.90;;;2.50;99.90;;;;;;4997305;28;20473;-63
2024/01/15 11:57:58;;;;;;;29.37;9.00;;;2.50;99.90;;;;;;5010847;28;20525;-63
2024/01/15 12:00:25;;;;;;;16.27;9.00;;;2.60;99.90;;;;;;5002256;28;20485;-65
2024/01/15 12:02:54;;;;;;;24.30;10.57;;;2.60;99.90;;;;;;4983337;28;20533;-63
2024/01/15 12:05:24;;;;;;;22.57;10.83;;;2.60;99.90;;;;;;4972209;28;20618;-63
2024/01/15 12:07:51;;;;;;;15.40;7.50;;;2.60;99.90;;;;;;4981563;28;20473;-63
2024/01/15 12:10:20;;;;;;;20.07;13.10;;;2.60;99.90;;;;;;5031080;28;20476;-64
2024/01/15 12:12:58;;;;;;;14.90;7.40;;;2.70;99.90;;;;;;4998271;28;20559;-64
2024/01/15 12:15:26;;;;;;;24.50;10.43;;;2.70;99.90;;;;;;5027437;28;20484;-63
2024/01/15 12:17:57;;;;;;;11.00;6.20;;;2.70;99.90;;;;;;4993106;28;20462;-63
2024/01/15 12:20:24;;;;;;;19.93;10.33;;;2.80;99.90;;;;;;5008240;28;20830;-63
2024/01/15 12:22:51;;;;;;;19.33;10.90;;;2.80;99.90;;;;;;5016541;28;20561;-62
2024/01/15 12:25:18;;;;;;;15.33;8.10;;;2.80;99.90;;;;;;5006129;28;20931;-62
2024/01/15 12:27:46;;;;;;;25.40;10.63;;;2.80;99.90;;;;;;4988619;28;20839;-62
2024/01/15 12:30:15;;;;;;;17.50;9.87;;;2.80;99.90;;;;;;5019300;28;20484;-63
2024/01/15 12:32:42;;;;;;;23.03;8.00;;;2.80;99.90;;;;;;4961796;28;20900;-63
2024/01/15 12:35:11;;;;;;;22.53;13.10;;;2.90;99.90;;;;;;4998613;28;20540;-62
2024/01/15 12:37:39;;;;;;;17.50;10.90;;;2.90;99.90;;;;;;4995994;28;20868;-62